Time;durP1;ratioP1;P1;durP2;ratioP2;P2;SDS_P1;SDS_P2;PMS_P1;PMS_P2;Temp;Humidity;BMP_temperature;BMP_pressure;BME280_temperature;BME280_humidity;BME280_pressure;Samples;Min_cycle;Max_cycle;Signal;HPM_P1;HPM_P2
2022/04/17 00:04:52;;;;;;;1.92;1.30;;;;;;;8.58;35.36;101495.84;18416303;32;20092;-66
2022/04/17 00:14:56;;;;;;;3.33;1.33;;;;;;;8.57;35.85;101504.50;18416313;32;20111;-66
2022/04/17 00:25:01;;;;;;;1.58;1.20;;;;;;;8.96;34.94;101500.16;18416774;32;20113;-66
2022/04/17 00:35:06;;;;;;;3.53;1.42;;;;;;;8.40;35.52;101499.75;18430260;32;20172;-67
2022/04/17 00:45:10;;;;;;;1.95;1.20;;;;;;;8.13;35.10;101503.41;18430046;32;20084;-66
2022/04/17 00:55:16;;;;;;;2.53;1.30;;;;;;;8.26;34.59;101495.94;18415261;32;20456;-66
2022/04/17 01:05:21;;;;;;;3.53;1.40;;;;;;;8.27;33.81;101488.16;18429353;32;20436;-66
2022/04/17 01:15:24;;;;;;;2.15;1.20;;;;;;;8.31;34.60;101478.69;18428459;32;20084;-67
2022/04/17 01:35:50;;;;;;;1.65;1.20;;;;;;;8.00;34.30;101465.78;18435654;32;20135;-66
2022/04/17 01:45:55;;;;;;;2.17;1.27;;;;;;;8.30;34.07;101458.72;18435276;32;20105;-66
2022/04/17 01:56:00;;;;;;;1.62;0.98;;;;;;;8.80;33.27;101457.28;18434885;32;20089;-66
2022/04/17 02:06:04;;;;;;;1.52;1.10;;;;;;;8.64;33.36;101458.69;18420276;32;20101;-66
2022/04/17 02:16:08;;;;;;;2.47;1.40;;;;;;;8.43;33.71;101454.69;18433929;32;20372;-66
2022/04/17 02:26:16;;;;;;;2.83;1.40;;;;;;;8.25;34.29;101456.03;18434085;32;20103;-65
2022/04/17 02:36:19;;;;;;;1.35;1.25;;;;;;;8.02;33.94;101458.03;18433693;32;20100;-66
2022/04/17 02:56:45;;;;;;;;;;;;;;;7.64;36.50;101451.88;18433749;32;20104;-65
2022/04/17 03:06:50;;;;;;;1.50;1.20;;;;;;;7.35;37.95;101451.06;18433956;32;19985;-66
2022/04/17 03:16:53;;;;;;;2.78;1.10;;;;;;;6.90;40.12;101465.38;18433173;32;20115;-66
2022/04/17 03:26:58;;;;;;;1.95;1.20;;;;;;;6.72;41.02;101451.00;18433030;32;20097;-65
2022/04/17 03:37:01;;;;;;;3.72;1.20;;;;;;;6.42;40.56;101450.94;18433287;32;20096;-66
2022/04/17 03:47:06;;;;;;;1.15;0.98;;;;;;;6.56;39.64;101453.97;18431137;32;20119;-66
2022/04/17 03:57:09;;;;;;;4.15;1.87;;;;;;;6.62;39.69;101448.97;18431145;32;20097;-66
2022/04/17 04:07:14;;;;;;;1.87;1.23;;;;;;;6.37;40.02;101453.38;18431469;32;20148;-66
2022/04/17 04:17:17;;;;;;;2.28;1.67;;;;;;;6.47;41.05;101465.81;18432115;32;20093;-66
2022/04/17 04:37:43;;;;;;;2.53;1.25;;;;;;;8.09;37.65;101470.38;18428091;32;20368;-66
2022/04/17 04:47:47;;;;;;;2.65;1.48;;;;;;;9.15;35.66;101462.38;18425384;32;20105;-66
2022/04/17 04:57:50;;;;;;;3.50;1.62;;;;;;;9.00;36.53;101463.81;18429893;32;20104;-66
2022/04/17 05:07:55;;;;;;;2.97;1.37;;;;;;;9.54;35.17;101458.81;18416507;32;20097;-66
2022/04/17 05:17:58;;;;;;;2.42;1.40;;;;;;;9.83;34.07;101463.69;18431015;32;20101;-66
2022/04/17 05:28:02;;;;;;;2.90;1.80;;;;;;;10.00;33.66;101465.72;18429757;32;20438;-66
2022/04/17 05:38:06;;;;;;;3.50;1.40;;;;;;;10.71;32.29;101459.88;18428367;32;20380;-66
2022/04/17 05:48:11;;;;;;;2.05;1.48;;;;;;;11.28;31.67;101459.75;18428681;32;20147;-66
2022/04/17 05:58:16;;;;;;;2.45;1.58;;;;;;;11.73;30.64;101462.88;18427500;32;20100;-66
2022/04/17 06:08:20;;;;;;;1.83;1.00;;;;;;;12.40;29.69;101446.03;18427406;32;20107;-65
2022/04/17 06:18:23;;;;;;;3.10;1.30;;;;;;;12.55;28.43;101458.34;18434465;32;20092;-67
2022/04/17 06:28:28;;;;;;;2.83;1.33;;;;;;;13.65;25.38;101450.06;18435272;32;20112;-66
2022/04/17 06:38:35;;;;;;;2.35;1.10;;;;;;;13.88;25.74;101459.75;18434866;32;20146;-66
2022/04/17 06:48:40;;;;;;;2.33;1.20;;;;;;;16.19;23.07;101446.66;18433736;32;20096;-67
2022/04/17 06:58:43;;;;;;;1.85;1.10;;;;;;;16.84;22.03;101445.09;18417683;32;20108;-67
2022/04/17 07:08:48;;;;;;;2.60;1.08;;;;;;;16.27;21.65;101462.38;18419532;32;20527;-67
2022/04/17 07:18:53;;;;;;;2.08;1.17;;;;;;;19.02;19.10;101439.06;18432382;32;20373;-67
2022/04/17 07:28:57;;;;;;;2.35;1.05;;;;;;;17.46;20.19;101460.19;18431824;32;20107;-64
2022/04/17 07:39:00;;;;;;;2.80;1.35;;;;;;;18.29;19.11;101454.50;18433803;32;20438;-64
2022/04/17 07:49:05;;;;;;;2.92;1.73;;;;;;;16.19;20.67;101467.72;18419102;32;457733;-64
2022/04/17 07:59:08;;;;;;;3.05;1.45;;;;;;;16.05;22.22;101458.16;18432742;32;20108;-64
2022/04/17 08:09:13;;;;;;;1.37;1.15;;;;;;;14.55;24.30;101438.69;18431733;32;20109;-63
2022/04/17 08:19:16;;;;;;;3.53;1.37;;;;;;;14.31;24.42;101435.22;18425416;32;20353;-63
2022/04/17 08:29:20;;;;;;;3.10;1.52;;;;;;;14.33;25.17;101432.63;18429857;32;20089;-63
2022/04/17 08:39:23;;;;;;;2.53;1.42;;;;;;;14.23;25.72;101426.47;18431726;32;20381;-63
2022/04/17 08:49:28;;;;;;;2.67;1.50;;;;;;;14.37;26.55;101408.06;18418546;32;20339;-64
2022/04/17 08:59:32;;;;;;;1.58;1.15;;;;;;;13.79;27.66;101407.25;18416702;32;20150;-63
2022/04/17 09:09:39;;;;;;;3.72;1.05;;;;;;;14.35;25.61;101388.81;18416712;32;20101;-63
2022/04/17 09:19:43;;;;;;;1.62;1.00;;;;;;;14.32;26.34;101373.94;18430319;32;20138;-64
2022/04/17 09:29:48;;;;;;;1.45;1.10;;;;;;;14.48;21.75;101373.91;18429703;32;20172;-63
2022/04/17 09:39:53;;;;;;;1.65;1.10;;;;;;;15.44;23.51;101351.53;18429182;32;20085;-62
2022/04/17 09:49:58;;;;;;;1.83;1.08;;;;;;;14.51;23.44;101340.62;18432402;32;20097;-64
2022/04/17 10:00:11;;;;;;;2.05;0.95;;;;;;;16.61;21.33;101310.03;18434240;32;20108;-64
2022/04/17 10:10:17;;;;;;;1.67;0.88;;;;;;;17.79;20.19;101296.84;18436046;32;20093;-64
2022/04/17 10:20:20;;;;;;;1.12;0.95;;;;;;;17.50;21.04;101292.94;18434628;32;20138;-64
2022/04/17 10:30:26;;;;;;;1.05;0.85;;;;;;;16.20;20.69;101296.47;18435007;32;20433;-64
2022/04/17 10:40:31;;;;;;;2.05;1.12;;;;;;;14.89;24.29;101280.00;18420633;32;20107;-64
2022/04/17 10:50:42;;;;;;;1.73;1.12;;;;;;;15.50;24.55;101264.69;18420633;32;20093;-64
2022/04/17 11:00:46;;;;;;;1.50;1.00;;;;;;;15.26;22.60;101243.81;18421088;32;20093;-64
2022/04/17 11:10:57;;;;;;;1.30;1.00;;;;;;;14.29;22.02;101247.91;18434848;32;20166;-64
2022/04/17 11:21:01;;;;;;;8.35;1.45;;;;;;;15.94;20.02;101242.34;18433780;32;20084;-64
2022/04/17 11:31:06;;;;;;;1.40;1.00;;;;;;;15.00;20.90;101230.88;18419323;32;20093;-64
2022/04/17 11:41:09;;;;;;;1.85;1.27;;;;;;;15.67;21.86;101207.50;18433295;32;20381;-64
2022/04/17 11:51:21;;;;;;;1.92;1.20;;;;;;;15.33;22.24;101202.56;18432392;32;20093;-64
2022/04/17 12:01:25;;;;;;;1.20;0.90;;;;;;;15.06;20.17;101180.88;18418529;32;20115;-64
2022/04/17 12:11:29;;;;;;;2.17;1.20;;;;;;;15.57;21.41;101184.78;18417341;32;20170;-64
2022/04/17 12:21:32;;;;;;;1.58;1.15;;;;;;;14.12;21.13;101188.44;18416713;32;20085;-63
2022/04/17 12:31:37;;;;;;;2.33;1.20;;;;;;;16.41;20.44;101157.47;18430665;32;20105;-64
2022/04/17 12:41:42;;;;;;;2.28;1.15;;;;;;;15.22;22.50;101151.81;18415295;32;20093;-64
2022/04/17 12:51:56;;;;;;;1.50;0.90;;;;;;;16.03;21.83;101143.03;18415339;32;20101;-64
2022/04/17 13:02:11;;;;;;;3.45;1.02;;;;;;;16.53;21.73;101123.91;18430224;32;20112;-64
2022/04/17 13:12:30;;;;;;;1.67;1.20;;;;;;;15.24;20.56;101123.72;18430313;32;20116;-64
2022/04/17 13:22:33;;;;;;;1.90;1.05;;;;;;;15.21;20.25;101092.22;18427860;32;20092;-63
2022/04/17 13:32:38;;;;;;;2.05;0.98;;;;;;;16.19;19.80;101084.00;18414247;32;20409;-64
2022/04/17 13:42:42;;;;;;;1.35;0.93;;;;;;;16.44;20.73;101065.19;18428356;32;20110;-64
2022/04/17 13:52:47;;;;;;;1.95;1.12;;;;;;;16.46;20.27;101054.63;18426436;32;20093;-64
2022/04/17 14:02:50;;;;;;;3.55;1.33;;;;;;;16.67;21.63;101036.72;18426587;32;20389;-64
2022/04/17 14:12:55;;;;;;;1.58;1.12;;;;;;;16.23;20.99;101032.12;18426147;32;20114;-64
2022/04/17 14:22:58;;;;;;;2.78;1.20;;;;;;;15.03;21.53;101020.53;18426519;32;20097;-63
2022/04/17 14:33:03;;;;;;;2.08;1.02;;;;;;;15.72;21.35;101012.66;18415579;32;20100;-64
2022/04/17 14:43:06;;;;;;;3.75;1.35;;;;;;;14.73;21.55;101001.56;18434136;32;20459;-65
2022/04/17 14:53:12;;;;;;;1.80;1.08;;;;;;;16.23;21.55;100982.09;18432921;32;20093;-65
2022/04/17 15:03:15;;;;;;;3.05;1.15;;;;;;;14.30;21.98;100981.78;18433933;32;20125;-63
2022/04/17 15:13:20;;;;;;;2.45;1.10;;;;;;;14.28;23.58;100987.03;18420220;32;20093;-64
2022/04/17 15:23:23;;;;;;;1.10;0.93;;;;;;;15.56;21.88;100963.75;18432834;32;20110;-64
2022/04/17 15:33:28;;;;;;;1.35;0.95;;;;;;;15.07;21.59;100958.25;18432401;32;20097;-64
2022/04/17 15:53:56;;;;;;;1.33;1.17;;;;;;;14.97;23.04;100934.69;18421078;32;20159;-64
2022/04/17 16:03:59;;;;;;;1.25;0.90;;;;;;;15.08;22.13;100934.59;18418662;32;20417;-64
2022/04/17 16:14:04;;;;;;;1.17;1.02;;;;;;;15.10;22.08;100932.81;18432055;32;20089;-64
2022/04/17 16:24:07;;;;;;;0.93;0.80;;;;;;;14.57;22.51;100930.72;18432695;32;20362;-63
2022/04/17 16:34:12;;;;;;;2.97;1.17;;;;;;;14.62;23.86;100929.81;18432301;32;20093;-64
2022/04/17 16:44:17;;;;;;;2.60;1.20;;;;;;;13.93;24.86;100946.16;18417216;32;20184;-64
2022/04/17 16:54:23;;;;;;;2.55;1.10;;;;;;;13.03;24.86;100949.25;18429920;32;20124;-64
2022/04/17 17:04:26;;;;;;;1.90;1.10;;;;;;;13.37;25.82;100953.47;18416966;32;20100;-64
2022/04/17 17:14:30;;;;;;;2.22;1.20;;;;;;;12.49;26.10;100963.34;18430796;32;20120;-63
2022/04/17 17:24:33;;;;;;;2.10;1.40;;;;;;;12.35;26.14;100966.84;18416628;32;20425;-64
2022/04/17 17:34:38;;;;;;;2.25;1.30;;;;;;;12.24;26.47;100976.47;18415331;32;20085;-63
2022/04/17 17:44:41;;;;;;;1.10;1.00;;;;;;;12.41;26.14;100971.22;18428066;32;20097;-66
2022/04/17 17:54:48;;;;;;;2.83;1.30;;;;;;;12.53;26.42;100974.69;18410524;32;20123;-66
2022/04/17 18:04:52;;;;;;;5.45;1.73;;;;;;;12.63;28.46;100974.69;18425962;32;20145;-66
2022/04/17 18:14:57;;;;;;;5.03;2.50;;;;;;;12.24;28.93;100988.66;18436145;32;20445;-66
2022/04/17 18:25:01;;;;;;;6.78;2.70;;;;;;;11.96;30.85;100993.84;18435878;32;20383;-66
2022/04/17 18:35:09;;;;;;;4.75;2.40;;;;;;;11.78;31.13;101004.28;18422227;32;20101;-66
2022/04/17 18:45:13;;;;;;;6.28;3.03;;;;;;;11.50;35.08;101013.75;18420961;32;20099;-66
2022/04/17 18:55:17;;;;;;;5.12;1.90;;;;;;;11.47;33.56;101016.37;18434239;32;20211;-66
2022/04/17 19:05:20;;;;;;;8.23;2.30;;;;;;;11.42;33.51;101016.34;18434636;32;20093;-66
2022/04/17 19:15:25;;;;;;;8.45;3.20;;;;;;;11.30;34.30;101016.31;18421242;32;20115;-66
2022/04/17 19:25:28;;;;;;;7.70;3.17;;;;;;;11.27;33.03;101018.88;18419715;32;20104;-66
2022/04/17 19:35:34;;;;;;;8.88;3.45;;;;;;;11.07;33.54;101015.31;18433727;32;20097;-66
2022/04/17 19:45:37;;;;;;;5.10;1.87;;;;;;;11.12;33.22;101017.97;18430228;32;20105;-66
2022/04/17 19:55:42;;;;;;;3.17;1.70;;;;;;;10.86;33.17;101003.00;18416289;32;20146;-66
2022/04/17 20:05:46;;;;;;;3.45;1.67;;;;;;;10.69;33.50;101011.59;18417079;32;20096;-66
2022/04/17 20:15:51;;;;;;;4.60;1.80;;;;;;;10.49;33.39;101011.47;18416294;32;20093;-66
2022/04/17 20:25:54;;;;;;;6.47;1.87;;;;;;;10.37;32.95;101020.03;18417041;32;20096;-66
2022/04/17 20:35:58;;;;;;;5.47;2.33;;;;;;;10.35;33.65;101018.25;18430020;32;20097;-65
2022/04/17 20:56:24;;;;;;;3.22;1.80;;;;;;;10.23;33.77;101016.41;18427304;32;20124;-66
2022/04/17 21:06:28;;;;;;;5.90;2.30;;;;;;;10.26;33.73;101021.66;18413103;32;20073;-66
2022/04/17 21:16:32;;;;;;;3.42;2.00;;;;;;;10.24;33.69;101015.53;18414908;32;20381;-66
2022/04/17 21:26:36;;;;;;;2.78;1.65;;;;;;;10.26;33.03;101019.06;18416458;32;20508;-66
2022/04/17 21:36:40;;;;;;;2.78;1.52;;;;;;;10.22;32.95;101009.44;18428889;32;20433;-66
2022/04/17 21:46:43;;;;;;;3.15;1.83;;;;;;;10.24;32.90;101005.97;18435748;32;20101;-66
2022/04/17 21:56:48;;;;;;;2.92;1.45;;;;;;;10.31;32.05;101009.50;18422577;32;20566;-65
2022/04/17 22:06:51;;;;;;;3.33;1.48;;;;;;;10.10;32.64;101004.97;18421397;32;20175;-66
2022/04/17 22:16:58;;;;;;;2.45;1.60;;;;;;;10.35;31.56;100998.25;18436849;32;20093;-66
2022/04/17 22:27:01;;;;;;;3.55;1.95;;;;;;;10.12;32.13;100996.31;18420454;32;20093;-65
2022/04/17 22:37:06;;;;;;;2.95;1.35;;;;;;;10.12;33.75;100985.87;18435803;32;20097;-66
2022/04/17 22:47:10;;;;;;;5.20;1.70;;;;;;;9.55;36.44;100991.38;18434653;32;20107;-66
2022/04/17 22:57:14;;;;;;;2.78;1.75;;;;;;;9.47;36.63;100979.13;18416957;32;20119;-66
2022/04/17 23:07:18;;;;;;;3.42;1.60;;;;;;;9.32;38.05;100972.84;18416466;32;20151;-66
2022/04/17 23:17:22;;;;;;;5.50;2.00;;;;;;;9.23;38.31;100958.00;18430017;32;20402;-66
2022/04/17 23:27:25;;;;;;;2.35;1.50;;;;;;;8.97;39.89;100950.72;18415760;32;20101;-65
2022/04/17 23:37:30;;;;;;;4.72;1.87;;;;;;;8.22;43.50;100934.84;18429285;32;20123;-66
2022/04/17 23:47:34;;;;;;;3.62;2.17;;;;;;;8.13;43.90;100931.25;18429384;32;20092;-66
2022/04/17 23:57:38;;;;;;;4.90;2.15;;;;;;;8.25;45.33;100920.16;18428636;32;105132;-66
